Flight Track Log - Related Links

Times and Time Zones

All times are in EDT time to prevent confusion due to time zone crossing. See the N631TS flight status page for this flight to view local times or setup timezone preferences in your user account.

Time Position Orientation Groundspeed Altitude Reporting Facility
EDT Latitude Longitude Course Direction KTS MPH feet Rate Location/Type
Fri 03:22:00 PM 47.7440 -101.0904 121° Southeast  Level Estimated
Fri 03:22:00 PM 48.0226 -100.5683 121° Southeast  Level Estimated
Fri 03:22:01 PM 48.2047 -100.9472 116° Southeast 242 278 10,600  Level Minneapolis Center
Fri 03:22:01 PM 48.2047 -100.9472 116° Southeast 242 278 10,600 1,161 Level Minneapolis Center
Fri 03:23:00 PM 47.6584 -101.0595 119° Southeast  Level Estimated
Fri 03:23:00 PM 47.9830 -100.4506 119° Southeast  Level Estimated
Fri 03:23:03 PM 48.1694 -100.8564 120° Southeast 259 298 11,800  Level Minneapolis Center
Fri 03:23:03 PM 48.1694 -100.8564 120° Southeast 259 298 11,800 1,548 Level Minneapolis Center
Fri 03:24:00 PM 47.6585 -100.9286 90° East  Level FlightAware Approximate
Fri 03:24:00 PM 47.9421 -100.3340 118° Southeast  Level FlightAware Approximate
Fri 03:24:05 PM 48.1372 -100.7625 117° Southeast 256 295 13,400  Level Minneapolis Center
Fri 03:24:05 PM 48.1372 -100.7625 117° Southeast 256 295 13,400 1,065 Level Minneapolis Center
Fri 03:25:00 PM 47.9023 -100.2167 116° Southeast  Level Estimated
Fri 03:25:00 PM 47.5712 -100.9103 116° Southeast  Level Estimated
Fri 03:25:07 PM 48.1061 -100.6658 116° Southeast 258 297 14,500  Level Minneapolis Center
Fri 03:25:07 PM 48.1061 -100.6658 116° Southeast 258 297 14,500 1,355 Level Minneapolis Center
Fri 03:26:00 PM 47.8624 -100.0996 110° East  Level Estimated
Fri 03:26:00 PM 47.4840 -100.8921 110° East  Level Estimated
Fri 03:26:09 PM 48.0622 -100.5408 118° Southeast 279 321 15,900  Level Minneapolis Center
Fri 03:26:09 PM 48.0622 -100.5408 118° Southeast 279 321 15,900 871 Level Minneapolis Center
Fri 03:27:11 PM 48.0258 -100.4347 117° Southeast 285 328 16,800 871 Climbing Minneapolis Center
Fri 03:27:11 PM 48.0258 -100.4347 117° Southeast 285 328 16,800 871 Level Minneapolis Center
Fri 03:28:13 PM 47.9900 -100.3242 116° Southeast 294 338 17,700 871 Climbing Minneapolis Center
Fri 03:28:13 PM 47.9900 -100.3242 116° Southeast 294 338 17,700 968 Level Minneapolis Center
Fri 03:29:15 PM 47.9497 -100.2144 119° Southeast 300 345 18,700 968 Climbing Minneapolis Center
Fri 03:29:15 PM 47.9497 -100.2144 119° Southeast 300 345 18,700 1,065 Level Minneapolis Center
Fri 03:30:17 PM 47.9122 -100.1053 117° Southeast 299 344 19,800 1,065 Climbing Minneapolis Center
Fri 03:30:17 PM 47.9122 -100.1053 117° Southeast 299 344 19,800 871 Level Minneapolis Center
Fri 03:31:19 PM 47.8750 -99.9958 117° Southeast 298 343 20,700 871 Climbing Minneapolis Center
Fri 03:31:19 PM 47.8750 -99.9958 117° Southeast 298 343 20,700 1,452 Level Minneapolis Center
Fri 03:32:21 PM 47.8300 -99.8664 117° Southeast 296 341 22,200 1,452 Climbing Minneapolis Center
Fri 03:32:21 PM 47.8300 -99.8664 117° Southeast 296 341 22,200 774 Level Minneapolis Center
Fri 03:33:23 PM 47.7936 -99.7589 117° Southeast 294 338 23,000 774 Climbing Minneapolis Center
Fri 03:33:23 PM 47.7936 -99.7589 117° Southeast 294 338 23,000 1,065 Level Minneapolis Center
Fri 03:34:25 PM 47.7556 -99.6522 118° Southeast 294 338 24,100 1,065 Climbing Minneapolis Center
Fri 03:34:25 PM 47.7556 -99.6522 118° Southeast 294 338 24,100 871 Level Minneapolis Center
Fri 03:35:27 PM 47.7178 -99.5461 118° Southeast 292 336 25,000 871 Climbing Minneapolis Center
Fri 03:35:27 PM 47.7178 -99.5461 118° Southeast 292 336 25,000 677 Level Minneapolis Center
Fri 03:36:29 PM 47.6800 -99.4375 117° Southeast 295 339 25,700 677 Climbing Minneapolis Center
Fri 03:36:29 PM 47.6800 -99.4375 117° Southeast 295 339 25,700 774 Level Minneapolis Center
Fri 03:37:31 PM 47.6400 -99.3281 118° Southeast 300 345 26,500 774 Climbing Minneapolis Center
Fri 03:37:31 PM 47.6400 -99.3281 118° Southeast 300 345 26,500 1,065 Level Minneapolis Center
Fri 03:38:33 PM 47.5917 -99.1942 118° Southeast 306 352 27,600 1,065 Climbing Minneapolis Center
Fri 03:38:33 PM 47.5917 -99.1942 118° Southeast 306 352 27,600 774 Level Minneapolis Center
Fri 03:39:35 PM 47.5522 -99.0853 118° Southeast 304 350 28,400 774 Climbing Minneapolis Center
Fri 03:39:35 PM 47.5522 -99.0853 118° Southeast 304 350 28,400 581 Level Minneapolis Center
Fri 03:40:37 PM 47.5125 -98.9772 119° Southeast 302 348 29,000 581 Climbing Minneapolis Center
Fri 03:40:37 PM 47.5125 -98.9772 119° Southeast 302 348 29,000 677 Level Minneapolis Center
Fri 03:41:39 PM 47.4725 -98.8658 118° Southeast 305 351 29,700 677 Climbing Minneapolis Center
Fri 03:41:39 PM 47.4725 -98.8658 118° Southeast 305 351 29,700 581 Level Minneapolis Center
Fri 03:42:41 PM 47.4306 -98.7531 119° Southeast 312 359 30,300 581 Climbing Minneapolis Center
Fri 03:42:41 PM 47.4306 -98.7531 119° Southeast 312 359 30,300 484 Level Minneapolis Center
Fri 03:43:43 PM 47.3806 -98.6164 118° Southeast 315 362 30,800 484 Climbing Minneapolis Center
Fri 03:43:43 PM 47.3806 -98.6164 118° Southeast 315 362 30,800 39 Level Minneapolis Center
Fri 03:48:54 PM 47.1344 -97.9594 119° Southeast 372 428 31,000 32 Climbing Minneapolis Center
Fri 03:49:56 PM 47.0842 -97.8256 119° Southeast 378 435 31,000  Level Minneapolis Center
Fri 03:50:58 PM 47.0331 -97.6931 119° Southeast 377 434 31,000  Level Minneapolis Center
Fri 03:52:00 PM 46.9819 -97.5583 119° Southeast 379 436 31,000  Level Minneapolis Center
Fri 03:53:02 PM 46.9297 -97.4236 120° Southeast 383 441 31,000  Level Minneapolis Center
Fri 03:54:04 PM 46.8669 -97.2622 120° Southeast 382 440 31,000  Level Minneapolis Center
Fri 03:55:06 PM 46.8147 -97.1281 120° Southeast 381 438 31,000  Level Minneapolis Center
Fri 03:56:08 PM 46.7622 -96.9953 120° Southeast 381 438 31,000  Level Minneapolis Center
Fri 03:57:10 PM 46.7106 -96.8622 119° Southeast 380 437 31,000  Level Minneapolis Center
Fri 03:58:12 PM 46.6581 -96.7303 120° Southeast 379 436 31,000  Level Minneapolis Center
Fri 03:59:16 PM 46.5944 -96.5758 121° Southeast 375 432 31,000  Level Minneapolis Center
Fri 04:00:18 PM 46.5428 -96.4436 120° Southeast 376 433 31,000  Level Minneapolis Center
Fri 04:01:21 PM 46.4900 -96.3117 120° Southeast 378 435 31,000  Level Minneapolis Center
Fri 04:02:23 PM 46.4367 -96.1819 121° Southeast 376 433 31,000  Level Minneapolis Center
Fri 04:03:25 PM 46.3850 -96.0497 119° Southeast 378 435 31,000  Level Minneapolis Center
Fri 04:04:27 PM 46.3206 -95.8944 121° Southeast 377 434 31,000  Level Minneapolis Center
Fri 04:05:29 PM 46.2728 -95.7769 120° Southeast 377 434 31,000  Level Minneapolis Center
Fri 04:06:31 PM 46.2197 -95.6483 121° Southeast 374 430 31,000 -629 Level Minneapolis Center
Fri 04:07:33 PM 46.1539 -95.4911 121° Southeast 380 437 29,700 -2,032 Descending Minneapolis Center
Fri 04:08:35 PM 46.0961 -95.3511 121° Southeast 400 460 26,800 -2,613 Descending Minneapolis Center
Fri 04:09:37 PM 46.0411 -95.2164 120° Southeast 396 456 24,300 -2,496 Descending Minneapolis Center
Fri 04:10:40 PM 45.9883 -95.0900 121° Southeast 378 435 21,600 -2,592 Descending Minneapolis Center
Fri 04:11:42 PM 45.9286 -94.9478 121° Southeast 367 422 18,900 -2,177 Descending Minneapolis Center
Fri 04:12:44 PM 45.8789 -94.8297 121° Southeast 355 409 17,100 -1,935 Descending Minneapolis Center
Fri 04:13:46 PM 45.8325 -94.7189 121° Southeast 336 387 14,900 -2,371 Descending Minneapolis Center
Fri 04:14:48 PM 45.7856 -94.6103 122° Southeast 327 376 12,200 -2,565 Descending Minneapolis Center
Fri 04:15:50 PM 45.7428 -94.5019 119° Southeast 321 369 9,600 -2,323 Descending Minneapolis Center
Fri 04:16:52 PM 45.6997 -94.4036 122° Southeast 309 356 7,400 -2,032 Descending Minneapolis Center
Fri 04:17:54 PM 45.6508 -94.2986 124° Southeast 283 326 5,400 -1,887 Descending Minneapolis Center
Fri 04:18:56 PM 45.6194 -94.2103 117° Southeast 265 305 3,500 -1,161 Descending Minneapolis Center
Fri 04:19:58 PM 45.5906 -94.1264 116° Southeast 261 300 3,000 -484 Descending Minneapolis Center
Fri 04:21:00 PM 45.5333 -94.0500 115° Southeast  Level FlightAware Approximate
Fri 04:28:00 PM 45.7143 -94.8932 115° Southeast  Level Estimated
Fri 04:29:00 PM 45.7396 -95.0142 115° Southeast  Level Estimated
Fri 04:30:00 PM 45.7649 -95.1352 115° Southeast  Level Estimated
Fri 04:31:00 PM 45.7899 -95.2563 115° Southeast  Level Estimated
Fri 04:32:00 PM 45.8149 -95.3775 115° Southeast  Level Estimated
Fri 04:33:00 PM 45.8397 -95.4989 115° Southeast  Level Estimated
Fri 04:34:00 PM 45.8644 -95.6203 115° Southeast  Level Estimated
Fri 04:35:00 PM 45.8890 -95.7419 115° Southeast  Level Estimated
Fri 04:36:00 PM 45.9134 -95.8635 115° Southeast  Level Estimated
Fri 04:37:00 PM 45.9378 -95.9853 115° Southeast  Level Estimated
Fri 04:38:00 PM 45.9620 -96.1072 115° Southeast  Level Estimated
Fri 04:39:00 PM 45.9860 -96.2292 115° Southeast  Level Estimated
Fri 04:40:00 PM 46.0099 -96.3512 115° Southeast  Level Estimated
Fri 04:41:00 PM 46.0337 -96.4734 115° Southeast  Level Estimated
Fri 04:42:00 PM 46.0574 -96.5957 115° Southeast  Level Estimated
Fri 04:43:00 PM 46.0810 -96.7182 115° Southeast  Level Estimated
Fri 04:44:00 PM 46.1044 -96.8407 115° Southeast  Level Estimated
Fri 04:45:00 PM 46.1276 -96.9633 115° Southeast  Level Estimated
Fri 04:46:00 PM 46.1508 -97.0860 115° Southeast  Level Estimated
Fri 04:47:00 PM 46.1738 -97.2088 115° Southeast  Level Estimated
Fri 04:48:00 PM 46.1967 -97.3317 115° Southeast  Level Estimated
Fri 04:49:00 PM 46.2194 -97.4548 115° Southeast  Level Estimated
Fri 04:50:00 PM 46.2420 -97.5779 115° Southeast  Level Estimated
Fri 04:51:00 PM 46.2645 -97.7011 115° Southeast  Level Estimated
Fri 04:52:00 PM 46.2869 -97.8244 115° Southeast  Level Estimated
Fri 04:53:00 PM 46.3091 -97.9479 115° Southeast  Level Estimated
Fri 04:54:00 PM 46.3312 -98.0714 115° Southeast  Level Estimated
Fri 04:55:00 PM 46.3531 -98.1950 115° Southeast  Level Estimated
Fri 04:56:00 PM 46.3749 -98.3188 115° Southeast  Level Estimated
Fri 04:57:00 PM 46.3966 -98.4426 115° Southeast  Level Estimated
Fri 04:58:00 PM 46.4182 -98.5665 115° Southeast  Level Estimated
Fri 04:59:00 PM 46.4396 -98.6905 115° Southeast  Level Estimated
Fri 05:00:00 PM 46.4609 -98.8147 115° Southeast  Level Estimated
Fri 05:01:00 PM 46.4820 -98.9389 115° Southeast  Level Estimated
Fri 05:02:00 PM 46.5030 -99.0632 115° Southeast  Level Estimated
Fri 05:03:00 PM 46.5239 -99.1876 115° Southeast  Level Estimated
Fri 05:04:00 PM 46.5447 -99.3121 115° Southeast  Level Estimated
Fri 05:05:00 PM 46.5653 -99.4367 115° Southeast  Level Estimated
Fri 05:06:00 PM 46.5857 -99.5614 115° Southeast  Level Estimated
Fri 05:07:00 PM 46.6061 -99.6862 115° Southeast  Level Estimated
Fri 05:08:00 PM 46.6263 -99.8111 115° Southeast  Level Estimated
Fri 05:09:00 PM 46.6464 -99.9360 115° Southeast  Level Estimated
Fri 05:10:00 PM 46.6663 -100.0611 115° Southeast  Level Estimated
Fri 05:11:00 PM 46.6861 -100.1862 115° Southeast  Level Estimated
Fri 05:12:00 PM 46.7057 -100.3115 115° Southeast  Level Estimated
Fri 05:13:00 PM 46.7253 -100.4368 115° Southeast  Level Estimated

Login

Don't have an account? Register now (free) for customized features, flight alerts, and more!